sensor_id;sensor_type;location;lat;lon;timestamp;pressure;altitude;pressure_sealevel;temperature;humidity
74631;BME280;63138;55.082;38.804;2023-04-15T00:01:02;100932.72;;;0.18;30.27
74631;BME280;63138;55.082;38.804;2023-04-15T00:03:32;100924.88;;;0.15;30.77
74631;BME280;63138;55.082;38.804;2023-04-15T00:06:05;100933.84;;;0.14;30.36
74631;BME280;63138;55.082;38.804;2023-04-15T00:08:33;100939.34;;;0.11;30.51
74631;BME280;63138;55.082;38.804;2023-04-15T00:11:05;100943.91;;;0.09;30.28
74631;BME280;63138;55.082;38.804;2023-04-15T00:13:34;100936.09;;;0.06;30.32
74631;BME280;63138;55.082;38.804;2023-04-15T00:16:08;100953.13;;;0.03;30.62
74631;BME280;63138;55.082;38.804;2023-04-15T00:19:03;100942.88;;;-0.05;30.88
74631;BME280;63138;55.082;38.804;2023-04-15T00:22:06;100953.72;;;-0.08;30.75
74631;BME280;63138;55.082;38.804;2023-04-15T00:24:37;100944.31;;;-0.15;31.07
74631;BME280;63138;55.082;38.804;2023-04-15T00:27:32;100961.91;;;-0.11;31.03
74631;BME280;63138;55.082;38.804;2023-04-15T00:30:23;100948.03;;;-0.17;31.02
74631;BME280;63138;55.082;38.804;2023-04-15T00:32:57;100965.88;;;-0.18;31.16
74631;BME280;63138;55.082;38.804;2023-04-15T00:35:27;100970.50;;;-0.22;31.44
74631;BME280;63138;55.082;38.804;2023-04-15T00:38:02;100986.59;;;-0.23;31.49
74631;BME280;63138;55.082;38.804;2023-04-15T00:40:34;100992.88;;;-0.24;31.80
74631;BME280;63138;55.082;38.804;2023-04-15T00:46:29;100991.47;;;-0.31;31.59
74631;BME280;63138;55.082;38.804;2023-04-15T00:48:58;100989.28;;;-0.41;31.96
74631;BME280;63138;55.082;38.804;2023-04-15T00:51:51;100990.16;;;-0.40;32.04
74631;BME280;63138;55.082;38.804;2023-04-15T00:54:24;101011.84;;;-0.46;32.56
74631;BME280;63138;55.082;38.804;2023-04-15T00:56:50;101001.56;;;-0.54;32.50
74631;BME280;63138;55.082;38.804;2023-04-15T00:59:16;101025.03;;;-0.61;32.82
74631;BME280;63138;55.082;38.804;2023-04-15T01:01:43;101020.09;;;-0.68;33.02
74631;BME280;63138;55.082;38.804;2023-04-15T01:04:10;101022.19;;;-0.75;32.88
74631;BME280;63138;55.082;38.804;2023-04-15T01:06:37;101032.16;;;-0.79;33.66
74631;BME280;63138;55.082;38.804;2023-04-15T01:09:29;101035.03;;;-0.83;33.83
74631;BME280;63138;55.082;38.804;2023-04-15T01:11:55;101033.47;;;-0.87;34.28
74631;BME280;63138;55.082;38.804;2023-04-15T01:14:26;101034.72;;;-0.94;34.72
74631;BME280;63138;55.082;38.804;2023-04-15T01:16:52;101035.75;;;-0.97;34.20
74631;BME280;63138;55.082;38.804;2023-04-15T01:19:19;101022.63;;;-1.02;34.10
74631;BME280;63138;55.082;38.804;2023-04-15T01:21:47;101033.31;;;-1.02;34.14
74631;BME280;63138;55.082;38.804;2023-04-15T01:24:17;101041.38;;;-1.03;34.53
74631;BME280;63138;55.082;38.804;2023-04-15T01:26:44;101046.00;;;-1.07;34.13
74631;BME280;63138;55.082;38.804;2023-04-15T01:29:41;101046.13;;;-1.10;34.61
74631;BME280;63138;55.082;38.804;2023-04-15T01:36:09;101052.81;;;-1.19;35.44
74631;BME280;63138;55.082;38.804;2023-04-15T01:38:36;101053.00;;;-1.23;34.70
74631;BME280;63138;55.082;38.804;2023-04-15T01:41:03;101061.94;;;-1.24;34.95
74631;BME280;63138;55.082;38.804;2023-04-15T01:43:31;101069.94;;;-1.24;34.66
74631;BME280;63138;55.082;38.804;2023-04-15T01:45:58;101059.38;;;-1.26;35.07
74631;BME280;63138;55.082;38.804;2023-04-15T01:48:25;101071.81;;;-1.26;34.94
74631;BME280;63138;55.082;38.804;2023-04-15T01:50:54;101067.50;;;-1.29;34.87
74631;BME280;63138;55.082;38.804;2023-04-15T01:53:25;101067.66;;;-1.32;34.99
74631;BME280;63138;55.082;38.804;2023-04-15T01:55:56;101076.72;;;-1.36;35.65
74631;BME280;63138;55.082;38.804;2023-04-15T01:58:23;101068.88;;;-1.39;35.34
74631;BME280;63138;55.082;38.804;2023-04-15T02:00:53;101081.34;;;-1.40;35.36
74631;BME280;63138;55.082;38.804;2023-04-15T02:03:24;101086.81;;;-1.43;35.44
74631;BME280;63138;55.082;38.804;2023-04-15T02:05:52;101091.41;;;-1.46;35.16
74631;BME280;63138;55.082;38.804;2023-04-15T02:08:21;101078.97;;;-1.46;35.41
74631;BME280;63138;55.082;38.804;2023-04-15T02:10:48;101100.34;;;-1.47;35.54
74631;BME280;63138;55.082;38.804;2023-04-15T02:13:15;101099.47;;;-1.48;35.03
74631;BME280;63138;55.082;38.804;2023-04-15T02:16:14;101103.03;;;-1.47;35.08
74631;BME280;63138;55.082;38.804;2023-04-15T02:18:47;101094.44;;;-1.54;35.09
74631;BME280;63138;55.082;38.804;2023-04-15T02:21:42;101095.03;;;-1.47;34.83
74631;BME280;63138;55.082;38.804;2023-04-15T02:24:10;101108.13;;;-1.43;34.71
74631;BME280;63138;55.082;38.804;2023-04-15T02:26:41;101101.38;;;-1.31;34.27
74631;BME280;63138;55.082;38.804;2023-04-15T02:29:10;101103.78;;;-1.07;34.30
74631;BME280;63138;55.082;38.804;2023-04-15T02:31:40;101102.25;;;-0.94;34.01
74631;BME280;63138;55.082;38.804;2023-04-15T02:34:10;101114.06;;;-0.81;33.82
74631;BME280;63138;55.082;38.804;2023-04-15T02:36:36;101112.81;;;-0.73;33.56
74631;BME280;63138;55.082;38.804;2023-04-15T02:39:34;101120.19;;;-0.79;33.66
74631;BME280;63138;55.082;38.804;2023-04-15T02:42:04;101129.69;;;-0.92;33.63
74631;BME280;63138;55.082;38.804;2023-04-15T02:44:34;101125.69;;;-1.01;34.24
74631;BME280;63138;55.082;38.804;2023-04-15T02:47:04;101140.09;;;-1.05;33.87
74631;BME280;63138;55.082;38.804;2023-04-15T02:49:32;101137.66;;;-1.09;34.20
74631;BME280;63138;55.082;38.804;2023-04-15T02:52:02;101141.25;;;-1.10;34.19
74631;BME280;63138;55.082;38.804;2023-04-15T02:54:30;101144.88;;;-1.11;33.97
74631;BME280;63138;55.082;38.804;2023-04-15T02:56:58;101155.31;;;-1.07;34.32
74631;BME280;63138;55.082;38.804;2023-04-15T02:59:30;101159.91;;;-1.10;34.45
74631;BME280;63138;55.082;38.804;2023-04-15T03:02:00;101158.09;;;-1.10;34.36
74631;BME280;63138;55.082;38.804;2023-04-15T03:04:46;101153.66;;;-1.09;33.92
74631;BME280;63138;55.082;38.804;2023-04-15T03:07:13;101161.66;;;-1.09;33.89
74631;BME280;63138;55.082;38.804;2023-04-15T03:09:40;101153.44;;;-1.05;34.09
74631;BME280;63138;55.082;38.804;2023-04-15T03:12:07;101169.44;;;-1.05;34.03
74631;BME280;63138;55.082;38.804;2023-04-15T03:14:34;101148.41;;;-1.11;33.85
74631;BME280;63138;55.082;38.804;2023-04-15T03:17:01;101173.84;;;-1.04;33.77
74631;BME280;63138;55.082;38.804;2023-04-15T03:19:28;101182.19;;;-0.92;33.61
74631;BME280;63138;55.082;38.804;2023-04-15T03:21:58;101194.53;;;-0.90;33.76
74631;BME280;63138;55.082;38.804;2023-04-15T03:24:25;101179.06;;;-0.83;33.65
74631;BME280;63138;55.082;38.804;2023-04-15T03:26:52;101181.09;;;-0.88;32.98
74631;BME280;63138;55.082;38.804;2023-04-15T03:33:28;101170.63;;;-0.74;32.76
74631;BME280;63138;55.082;38.804;2023-04-15T03:35:55;101189.81;;;-0.66;33.13
74631;BME280;63138;55.082;38.804;2023-04-15T03:38:23;101179.06;;;-0.64;32.59
74631;BME280;63138;55.082;38.804;2023-04-15T03:41:08;101132.22;;;-0.70;32.86
74631;BME280;63138;55.082;38.804;2023-04-15T03:44:03;101168.53;;;-0.67;32.74
74631;BME280;63138;55.082;38.804;2023-04-15T03:46:30;101203.84;;;-0.62;32.53
74631;BME280;63138;55.082;38.804;2023-04-15T03:48:57;101199.31;;;-0.60;32.77
74631;BME280;63138;55.082;38.804;2023-04-15T03:51:24;101185.25;;;-0.64;33.08
74631;BME280;63138;55.082;38.804;2023-04-15T03:53:52;101200.97;;;-0.57;33.15
74631;BME280;63138;55.082;38.804;2023-04-15T03:56:19;101197.44;;;-0.58;32.53
74631;BME280;63138;55.082;38.804;2023-04-15T03:58:46;101213.69;;;-0.45;32.47
74631;BME280;63138;55.082;38.804;2023-04-15T04:01:14;101202.16;;;-0.46;32.83
74631;BME280;63138;55.082;38.804;2023-04-15T04:03:42;101204.19;;;-0.51;32.76
74631;BME280;63138;55.082;38.804;2023-04-15T04:06:13;101193.31;;;-0.46;32.83
74631;BME280;63138;55.082;38.804;2023-04-15T04:08:43;101201.72;;;-0.36;32.50
74631;BME280;63138;55.082;38.804;2023-04-15T04:11:11;101214.69;;;-0.29;32.57
74631;BME280;63138;55.082;38.804;2023-04-15T04:13:42;101194.06;;;-0.25;32.41
74631;BME280;63138;55.082;38.804;2023-04-15T04:16:10;101223.44;;;-0.25;32.19
74631;BME280;63138;55.082;38.804;2023-04-15T04:19:22;101201.88;;;-0.40;32.41
74631;BME280;63138;55.082;38.804;2023-04-15T04:21:52;101207.63;;;-0.30;32.78
74631;BME280;63138;55.082;38.804;2023-04-15T04:24:20;101213.22;;;-0.17;32.02
74631;BME280;63138;55.082;38.804;2023-04-15T04:26:48;101229.00;;;-0.12;32.50
74631;BME280;63138;55.082;38.804;2023-04-15T04:29:16;101231.44;;;-0.08;32.48
74631;BME280;63138;55.082;38.804;2023-04-15T04:31:43;101225.56;;;0.03;31.91
74631;BME280;63138;55.082;38.804;2023-04-15T04:34:13;101229.00;;;0.05;32.02
74631;BME280;63138;55.082;38.804;2023-04-15T04:36:41;101213.06;;;0.04;32.13
74631;BME280;63138;55.082;38.804;2023-04-15T04:39:08;101199.09;;;-0.02;31.94
74631;BME280;63138;55.082;38.804;2023-04-15T04:41:38;101235.28;;;0.22;32.05
74631;BME280;63138;55.082;38.804;2023-04-15T04:44:06;101249.50;;;0.40;31.82
74631;BME280;63138;55.082;38.804;2023-04-15T04:46:34;101235.28;;;0.39;31.84
74631;BME280;63138;55.082;38.804;2023-04-15T04:49:01;101230.72;;;0.41;31.66
74631;BME280;63138;55.082;38.804;2023-04-15T04:51:31;101231.06;;;0.35;31.47
74631;BME280;63138;55.082;38.804;2023-04-15T04:53:59;101190.81;;;0.38;31.61
74631;BME280;63138;55.082;38.804;2023-04-15T04:56:27;101232.69;;;0.37;31.21
74631;BME280;63138;55.082;38.804;2023-04-15T04:58:56;101237.53;;;0.31;32.14
74631;BME280;63138;55.082;38.804;2023-04-15T05:01:48;101229.47;;;0.48;31.80
74631;BME280;63138;55.082;38.804;2023-04-15T05:04:16;101236.84;;;0.61;31.24
74631;BME280;63138;55.082;38.804;2023-04-15T05:07:34;101241.19;;;0.79;31.56
74631;BME280;63138;55.082;38.804;2023-04-15T05:10:02;101241.13;;;0.81;31.13
74631;BME280;63138;55.082;38.804;2023-04-15T05:12:29;101231.38;;;1.29;30.64
74631;BME280;63138;55.082;38.804;2023-04-15T05:14:59;101244.56;;;1.80;29.93
74631;BME280;63138;55.082;38.804;2023-04-15T05:17:26;101231.13;;;1.96;29.06
74631;BME280;63138;55.082;38.804;2023-04-15T05:20:43;101239.81;;;2.15;28.96
74631;BME280;63138;55.082;38.804;2023-04-15T05:23:38;101250.44;;;1.86;29.06
74631;BME280;63138;55.082;38.804;2023-04-15T05:26:05;101246.06;;;2.00;29.18
74631;BME280;63138;55.082;38.804;2023-04-15T05:28:32;101250.91;;;2.09;28.53
74631;BME280;63138;55.082;38.804;2023-04-15T05:31:51;101249.88;;;2.56;28.45
74631;BME280;63138;55.082;38.804;2023-04-15T05:34:21;101256.88;;;2.59;28.40
74631;BME280;63138;55.082;38.804;2023-04-15T05:36:48;101244.31;;;2.45;28.18
74631;BME280;63138;55.082;38.804;2023-04-15T05:39:19;101253.72;;;2.66;27.83
74631;BME280;63138;55.082;38.804;2023-04-15T05:41:46;101246.91;;;2.61;27.77
74631;BME280;63138;55.082;38.804;2023-04-15T05:44:13;101255.59;;;2.50;27.88
74631;BME280;63138;55.082;38.804;2023-04-15T05:46:40;101237.84;;;2.92;27.33
74631;BME280;63138;55.082;38.804;2023-04-15T05:52:25;101259.88;;;2.97;27.55
74631;BME280;63138;55.082;38.804;2023-04-15T05:54:53;101263.13;;;3.17;27.03
74631;BME280;63138;55.082;38.804;2023-04-15T05:57:24;101257.09;;;2.99;27.16
74631;BME280;63138;55.082;38.804;2023-04-15T05:59:52;101250.69;;;3.01;27.27
74631;BME280;63138;55.082;38.804;2023-04-15T06:02:45;101270.31;;;3.31;26.55
74631;BME280;63138;55.082;38.804;2023-04-15T06:05:45;101276.50;;;3.60;26.64
74631;BME280;63138;55.082;38.804;2023-04-15T06:09:00;101253.72;;;3.80;25.43
74631;BME280;63138;55.082;38.804;2023-04-15T06:11:28;101276.59;;;4.00;24.96
74631;BME280;63138;55.082;38.804;2023-04-15T06:13:56;101267.25;;;3.78;26.02
74631;BME280;63138;55.082;38.804;2023-04-15T06:16:23;101273.66;;;4.03;25.29
74631;BME280;63138;55.082;38.804;2023-04-15T06:18:51;101287.66;;;4.48;24.87
74631;BME280;63138;55.082;38.804;2023-04-15T06:21:19;101293.22;;;4.72;24.88
74631;BME280;63138;55.082;38.804;2023-04-15T06:23:47;101267.69;;;4.91;24.58
74631;BME280;63138;55.082;38.804;2023-04-15T06:26:39;101287.94;;;5.09;24.18
74631;BME280;63138;55.082;38.804;2023-04-15T06:29:16;101274.16;;;4.88;23.67
74631;BME280;63138;55.082;38.804;2023-04-15T06:32:44;101284.81;;;5.28;23.49
74631;BME280;63138;55.082;38.804;2023-04-15T06:35:13;101285.69;;;5.66;23.34
74631;BME280;63138;55.082;38.804;2023-04-15T06:37:42;101290.47;;;5.36;23.13
74631;BME280;63138;55.082;38.804;2023-04-15T06:40:33;101289.44;;;5.26;22.83
74631;BME280;63138;55.082;38.804;2023-04-15T06:43:05;101272.81;;;5.32;22.78
74631;BME280;63138;55.082;38.804;2023-04-15T06:49:41;101277.41;;;4.93;22.99
74631;BME280;63138;55.082;38.804;2023-04-15T06:52:09;101257.38;;;4.72;23.10
74631;BME280;63138;55.082;38.804;2023-04-15T06:54:38;101278.56;;;4.89;22.67
74631;BME280;63138;55.082;38.804;2023-04-15T06:57:05;101288.78;;;4.71;22.92
74631;BME280;63138;55.082;38.804;2023-04-15T06:59:39;101287.28;;;4.80;23.22
74631;BME280;63138;55.082;38.804;2023-04-15T07:02:07;101273.19;;;5.02;22.62
74631;BME280;63138;55.082;38.804;2023-04-15T07:05:06;101284.06;;;5.13;22.49
74631;BME280;63138;55.082;38.804;2023-04-15T07:08:00;101289.69;;;4.97;22.59
74631;BME280;63138;55.082;38.804;2023-04-15T07:10:29;101275.13;;;4.62;22.79
74631;BME280;63138;55.082;38.804;2023-04-15T07:12:59;101278.66;;;4.75;22.99
74631;BME280;63138;55.082;38.804;2023-04-15T07:15:28;101281.06;;;4.79;22.36
74631;BME280;63138;55.082;38.804;2023-04-15T07:18:44;101283.00;;;5.03;22.53
74631;BME280;63138;55.082;38.804;2023-04-15T07:25:04;101294.22;;;4.44;22.52
74631;BME280;63138;55.082;38.804;2023-04-15T07:27:36;101295.06;;;4.72;22.63
74631;BME280;63138;55.082;38.804;2023-04-15T07:30:06;101288.16;;;5.06;22.03
74631;BME280;63138;55.082;38.804;2023-04-15T07:33:25;101265.34;;;4.20;22.35
74631;BME280;63138;55.082;38.804;2023-04-15T07:35:53;101284.47;;;4.43;21.89
74631;BME280;63138;55.082;38.804;2023-04-15T07:38:46;101292.66;;;4.54;22.28
74631;BME280;63138;55.082;38.804;2023-04-15T07:41:17;101254.22;;;4.52;21.72
74631;BME280;63138;55.082;38.804;2023-04-15T07:43:44;101277.34;;;4.55;22.61
74631;BME280;63138;55.082;38.804;2023-04-15T07:46:11;101278.34;;;4.54;21.85
74631;BME280;63138;55.082;38.804;2023-04-15T07:48:39;101258.78;;;4.65;21.51
74631;BME280;63138;55.082;38.804;2023-04-15T07:51:06;101281.69;;;4.83;21.84
74631;BME280;63138;55.082;38.804;2023-04-15T07:53:58;101293.22;;;4.85;22.10
74631;BME280;63138;55.082;38.804;2023-04-15T07:56:25;101286.97;;;4.85;21.94
74631;BME280;63138;55.082;38.804;2023-04-15T07:58:53;101293.53;;;5.19;21.80
74631;BME280;63138;55.082;38.804;2023-04-15T08:01:21;101282.34;;;5.12;21.69
74631;BME280;63138;55.082;38.804;2023-04-15T08:04:13;101278.06;;;4.97;21.35
74631;BME280;63138;55.082;38.804;2023-04-15T08:06:41;101277.00;;;5.36;21.24
74631;BME280;63138;55.082;38.804;2023-04-15T08:09:11;101289.13;;;5.18;21.30
74631;BME280;63138;55.082;38.804;2023-04-15T08:11:39;101272.63;;;5.35;21.29
74631;BME280;63138;55.082;38.804;2023-04-15T08:14:12;101254.69;;;4.97;20.77
74631;BME280;63138;55.082;38.804;2023-04-15T08:17:04;101280.66;;;5.48;20.79
74631;BME280;63138;55.082;38.804;2023-04-15T08:19:39;101288.69;;;5.74;21.08
74631;BME280;63138;55.082;38.804;2023-04-15T08:22:31;101288.03;;;5.70;21.05
74631;BME280;63138;55.082;38.804;2023-04-15T08:25:25;101274.66;;;5.82;20.70
74631;BME280;63138;55.082;38.804;2023-04-15T08:27:56;101301.91;;;5.40;21.17
74631;BME280;63138;55.082;38.804;2023-04-15T08:30:55;101291.22;;;5.88;21.21
74631;BME280;63138;55.082;38.804;2023-04-15T08:33:26;101281.56;;;6.34;21.08
74631;BME280;63138;55.082;38.804;2023-04-15T08:36:22;101260.72;;;6.12;20.91
74631;BME280;63138;55.082;38.804;2023-04-15T08:38:50;101272.22;;;6.03;20.97
74631;BME280;63138;55.082;38.804;2023-04-15T08:41:56;101287.50;;;6.50;21.04
74631;BME280;63138;55.082;38.804;2023-04-15T08:44:33;101278.28;;;6.42;20.10
74631;BME280;63138;55.082;38.804;2023-04-15T08:47:28;101281.53;;;6.69;20.90
74631;BME280;63138;55.082;38.804;2023-04-15T08:49:58;101285.88;;;6.95;19.89
74631;BME280;63138;55.082;38.804;2023-04-15T08:52:30;101276.41;;;7.00;19.60
74631;BME280;63138;55.082;38.804;2023-04-15T08:55:07;101273.50;;;7.26;19.09
74631;BME280;63138;55.082;38.804;2023-04-15T09:01:03;101279.53;;;7.30;19.06
74631;BME280;63138;55.082;38.804;2023-04-15T09:03:31;101253.22;;;7.43;18.26
74631;BME280;63138;55.082;38.804;2023-04-15T09:06:52;101287.66;;;7.96;18.60
74631;BME280;63138;55.082;38.804;2023-04-15T09:09:44;101262.16;;;8.10;18.88
74631;BME280;63138;55.082;38.804;2023-04-15T09:12:38;101264.75;;;7.68;18.22
74631;BME280;63138;55.082;38.804;2023-04-15T09:15:07;101274.13;;;7.96;18.46
74631;BME280;63138;55.082;38.804;2023-04-15T09:18:06;101270.34;;;8.31;17.91
74631;BME280;63138;55.082;38.804;2023-04-15T09:20:41;101252.28;;;8.20;18.17
74631;BME280;63138;55.082;38.804;2023-04-15T09:23:12;101253.63;;;7.93;17.82
74631;BME280;63138;55.082;38.804;2023-04-15T09:25:41;101255.53;;;8.02;17.90
74631;BME280;63138;55.082;38.804;2023-04-15T09:28:13;101252.19;;;7.78;18.10
74631;BME280;63138;55.082;38.804;2023-04-15T09:30:43;101273.09;;;8.08;18.35
74631;BME280;63138;55.082;38.804;2023-04-15T09:33:54;101249.13;;;8.15;18.36
74631;BME280;63138;55.082;38.804;2023-04-15T09:36:53;101238.63;;;7.89;18.30
74631;BME280;63138;55.082;38.804;2023-04-15T09:39:49;101256.84;;;7.87;18.43
74631;BME280;63138;55.082;38.804;2023-04-15T09:42:22;101252.41;;;7.86;18.20
74631;BME280;63138;55.082;38.804;2023-04-15T09:44:50;101249.00;;;7.61;18.07
74631;BME280;63138;55.082;38.804;2023-04-15T09:47:48;101259.28;;;7.24;19.14
74631;BME280;63138;55.082;38.804;2023-04-15T09:50:21;101260.22;;;7.34;19.47
74631;BME280;63138;55.082;38.804;2023-04-15T09:53:37;101249.44;;;7.45;18.54
74631;BME280;63138;55.082;38.804;2023-04-15T09:56:53;101230.03;;;7.40;18.55
74631;BME280;63138;55.082;38.804;2023-04-15T09:59:21;101262.31;;;7.53;18.67
74631;BME280;63138;55.082;38.804;2023-04-15T10:02:40;101264.56;;;7.92;18.42
74631;BME280;63138;55.082;38.804;2023-04-15T10:05:14;101245.81;;;7.68;18.73
74631;BME280;63138;55.082;38.804;2023-04-15T10:07:43;101253.47;;;7.51;18.69
74631;BME280;63138;55.082;38.804;2023-04-15T10:16:44;101254.34;;;7.95;18.81
74631;BME280;63138;55.082;38.804;2023-04-15T10:19:20;101262.22;;;7.98;18.28
74631;BME280;63138;55.082;38.804;2023-04-15T10:21:54;101268.31;;;7.68;18.32
74631;BME280;63138;55.082;38.804;2023-04-15T10:24:45;101252.75;;;7.49;19.24
74631;BME280;63138;55.082;38.804;2023-04-15T10:27:16;101266.56;;;7.78;18.83
74631;BME280;63138;55.082;38.804;2023-04-15T10:29:48;101262.53;;;7.61;19.45
74631;BME280;63138;55.082;38.804;2023-04-15T10:32:19;101250.47;;;7.77;18.62
74631;BME280;63138;55.082;38.804;2023-04-15T10:39:44;101257.66;;;7.21;18.84
74631;BME280;63138;55.082;38.804;2023-04-15T10:42:14;101244.38;;;7.18;19.30
74631;BME280;63138;55.082;38.804;2023-04-15T10:45:35;101244.91;;;7.35;19.74
74631;BME280;63138;55.082;38.804;2023-04-15T10:48:08;101256.66;;;7.56;18.89
74631;BME280;63138;55.082;38.804;2023-04-15T10:50:36;101242.88;;;8.03;19.57
74631;BME280;63138;55.082;38.804;2023-04-15T10:53:04;101233.72;;;8.15;19.72
74631;BME280;63138;55.082;38.804;2023-04-15T10:55:33;101258.72;;;8.08;18.77
74631;BME280;63138;55.082;38.804;2023-04-15T10:58:01;101241.59;;;7.86;18.79
74631;BME280;63138;55.082;38.804;2023-04-15T11:00:36;101256.03;;;7.64;18.72
74631;BME280;63138;55.082;38.804;2023-04-15T11:03:06;101244.69;;;7.70;19.06
74631;BME280;63138;55.082;38.804;2023-04-15T11:12:09;101251.00;;;7.71;18.43
74631;BME280;63138;55.082;38.804;2023-04-15T11:14:39;101251.75;;;7.94;18.46
74631;BME280;63138;55.082;38.804;2023-04-15T11:17:32;101233.34;;;7.44;18.94
74631;BME280;63138;55.082;38.804;2023-04-15T11:20:54;101234.16;;;7.56;19.65
74631;BME280;63138;55.082;38.804;2023-04-15T11:23:49;101226.66;;;7.71;18.70
74631;BME280;63138;55.082;38.804;2023-04-15T11:26:43;101248.25;;;7.82;18.15
74631;BME280;63138;55.082;38.804;2023-04-15T11:29:31;101244.22;;;8.09;17.77
74631;BME280;63138;55.082;38.804;2023-04-15T11:32:07;101246.75;;;8.21;18.02
74631;BME280;63138;55.082;38.804;2023-04-15T11:34:35;101240.69;;;8.29;18.68
74631;BME280;63138;55.082;38.804;2023-04-15T11:37:05;101255.72;;;8.54;18.35
74631;BME280;63138;55.082;38.804;2023-04-15T11:40:01;101252.97;;;8.45;18.53
74631;BME280;63138;55.082;38.804;2023-04-15T11:43:20;101243.84;;;8.67;18.40
74631;BME280;63138;55.082;38.804;2023-04-15T11:48:31;101249.50;;;8.64;18.92
74631;BME280;63138;55.082;38.804;2023-04-15T11:51:49;101238.41;;;8.88;18.46
74631;BME280;63138;55.082;38.804;2023-04-15T11:54:18;101235.91;;;8.75;18.34
74631;BME280;63138;55.082;38.804;2023-04-15T11:57:15;101227.78;;;8.75;18.04
74631;BME280;63138;55.082;38.804;2023-04-15T12:00:10;101236.38;;;8.59;17.68
74631;BME280;63138;55.082;38.804;2023-04-15T12:02:39;101212.50;;;8.32;17.97
74631;BME280;63138;55.082;38.804;2023-04-15T12:06:17;101221.16;;;8.26;18.06
74631;BME280;63138;55.082;38.804;2023-04-15T12:12:16;101226.88;;;8.44;18.29
74631;BME280;63138;55.082;38.804;2023-04-15T12:15:09;101214.13;;;8.55;18.08
74631;BME280;63138;55.082;38.804;2023-04-15T12:17:39;101211.94;;;8.70;17.64
74631;BME280;63138;55.082;38.804;2023-04-15T12:20:09;101213.38;;;8.74;18.15
74631;BME280;63138;55.082;38.804;2023-04-15T12:22:37;101208.28;;;8.81;17.26
74631;BME280;63138;55.082;38.804;2023-04-15T12:25:31;101182.16;;;8.70;17.10
74631;BME280;63138;55.082;38.804;2023-04-15T12:28:09;101199.25;;;8.50;17.54
74631;BME280;63138;55.082;38.804;2023-04-15T12:31:25;101218.97;;;8.52;18.10
74631;BME280;63138;55.082;38.804;2023-04-15T12:34:26;101205.97;;;8.76;17.20
74631;BME280;63138;55.082;38.804;2023-04-15T12:36:59;101195.59;;;8.82;17.76
74631;BME280;63138;55.082;38.804;2023-04-15T12:39:33;101210.59;;;8.86;17.53
74631;BME280;63138;55.082;38.804;2023-04-15T12:42:48;101194.38;;;8.95;17.51
74631;BME280;63138;55.082;38.804;2023-04-15T12:45:16;101174.34;;;8.77;17.85
74631;BME280;63138;55.082;38.804;2023-04-15T12:47:42;101187.50;;;8.39;18.02
74631;BME280;63138;55.082;38.804;2023-04-15T12:50:27;101166.00;;;8.59;18.03
74631;BME280;63138;55.082;38.804;2023-04-15T12:52:55;101205.00;;;8.56;17.98
74631;BME280;63138;55.082;38.804;2023-04-15T12:55:49;101199.47;;;8.58;17.90
74631;BME280;63138;55.082;38.804;2023-04-15T12:58:20;101197.94;;;8.65;17.86
74631;BME280;63138;55.082;38.804;2023-04-15T13:04:36;101196.75;;;9.19;18.20
74631;BME280;63138;55.082;38.804;2023-04-15T13:07:04;101170.47;;;9.01;17.75
74631;BME280;63138;55.082;38.804;2023-04-15T13:09:31;101177.81;;;8.89;17.64
74631;BME280;63138;55.082;38.804;2023-04-15T13:12:16;101198.16;;;9.04;17.49
74631;BME280;63138;55.082;38.804;2023-04-15T13:14:43;101201.91;;;9.23;17.53
74631;BME280;63138;55.082;38.804;2023-04-15T13:17:09;101199.91;;;9.25;17.36
74631;BME280;63138;55.082;38.804;2023-04-15T13:20:01;101178.09;;;9.16;17.75
74631;BME280;63138;55.082;38.804;2023-04-15T13:22:46;101185.19;;;9.17;17.38
74631;BME280;63138;55.082;38.804;2023-04-15T13:25:12;101198.78;;;9.27;17.46
74631;BME280;63138;55.082;38.804;2023-04-15T13:27:38;101191.28;;;9.50;17.97
74631;BME280;63138;55.082;38.804;2023-04-15T13:30:05;101198.28;;;9.63;17.52
74631;BME280;63138;55.082;38.804;2023-04-15T13:32:57;101179.06;;;9.15;17.38
74631;BME280;63138;55.082;38.804;2023-04-15T13:35:25;101191.78;;;9.25;17.55
74631;BME280;63138;55.082;38.804;2023-04-15T13:37:54;101178.28;;;9.44;17.55
74631;BME280;63138;55.082;38.804;2023-04-15T13:40:21;101173.13;;;9.31;17.36
74631;BME280;63138;55.082;38.804;2023-04-15T13:42:50;101184.25;;;9.38;17.21
74631;BME280;63138;55.082;38.804;2023-04-15T13:45:35;101186.88;;;9.09;17.66
74631;BME280;63138;55.082;38.804;2023-04-15T13:48:02;101184.22;;;9.18;17.32
74631;BME280;63138;55.082;38.804;2023-04-15T13:50:28;101173.72;;;9.35;17.84
74631;BME280;63138;55.082;38.804;2023-04-15T13:52:55;101198.56;;;9.60;17.82
74631;BME280;63138;55.082;38.804;2023-04-15T13:55:46;101185.63;;;9.73;17.79
74631;BME280;63138;55.082;38.804;2023-04-15T13:58:39;101165.97;;;9.30;17.12
74631;BME280;63138;55.082;38.804;2023-04-15T14:01:32;101187.72;;;9.40;17.70
74631;BME280;63138;55.082;38.804;2023-04-15T14:03:58;101198.25;;;9.43;16.96
74631;BME280;63138;55.082;38.804;2023-04-15T14:06:51;101194.81;;;9.41;17.41
74631;BME280;63138;55.082;38.804;2023-04-15T14:09:21;101190.25;;;9.32;17.81
74631;BME280;63138;55.082;38.804;2023-04-15T14:11:50;101181.84;;;9.35;17.29
74631;BME280;63138;55.082;38.804;2023-04-15T14:14:16;101207.00;;;9.16;17.04
74631;BME280;63138;55.082;38.804;2023-04-15T14:16:42;101182.72;;;9.05;16.60
74631;BME280;63138;55.082;38.804;2023-04-15T14:19:29;101212.28;;;9.08;16.73
74631;BME280;63138;55.082;38.804;2023-04-15T14:22:18;101214.78;;;9.30;16.93
74631;BME280;63138;55.082;38.804;2023-04-15T14:24:45;101204.50;;;9.24;17.39
74631;BME280;63138;55.082;38.804;2023-04-15T14:27:14;101208.75;;;9.27;17.61
74631;BME280;63138;55.082;38.804;2023-04-15T14:29:46;101200.38;;;9.30;17.46
74631;BME280;63138;55.082;38.804;2023-04-15T14:32:38;101177.19;;;9.16;17.56